Time;durP1;ratioP1;P1;durP2;ratioP2;P2;SDS_P1;SDS_P2;PMS_P1;PMS_P2;Temp;Humidity;BMP_temperature;BMP_pressure;BME280_temperature;BME280_humidity;BME280_pressure;Samples;Min_cycle;Max_cycle;Signal;HPM_P1;HPM_P2
2023/08/24 00:00:00;;;;;;;8.00;5.00;;;;;;;14.23;80.21;99076.21;105699;1254;76758;-24
2023/08/24 00:02:28;;;;;;;8.90;4.80;;;;;;;14.02;80.69;99075.60;105629;1259;76631;-23
2023/08/24 00:04:56;;;;;;;7.10;3.10;;;;;;;13.82;81.21;99079.50;105715;1254;63664;-23
2023/08/24 00:07:24;;;;;;;6.10;3.70;;;;;;;14.23;81.44;99077.72;105745;1260;60997;-22
2023/08/24 00:09:55;;;;;;;7.00;4.20;;;;;;;14.74;80.53;99072.77;105621;1261;77603;-23
2023/08/24 00:12:23;;;;;;;7.90;4.10;;;;;;;14.74;78.21;99080.39;105778;1254;74488;-23
2023/08/24 00:14:51;;;;;;;8.90;4.40;;;;;;;14.49;76.93;99077.71;105711;1254;71453;-23
2023/08/24 00:17:19;;;;;;;8.30;4.00;;;;;;;14.21;76.73;99080.23;105838;1254;61052;-23
2023/08/24 00:19:47;;;;;;;9.20;5.40;;;;;;;13.94;77.13;99085.10;105717;1254;61377;-23
2023/08/24 00:22:15;;;;;;;5.10;2.80;;;;;;;13.71;79.05;99080.58;105550;1259;77677;-23
2023/08/24 00:24:43;;;;;;;5.60;3.10;;;;;;;14.05;80.54;99080.23;105523;1254;73227;-23
2023/08/24 00:27:10;;;;;;;5.50;3.40;;;;;;;14.45;77.79;99077.58;105713;1257;72650;-23
2023/08/24 00:29:38;;;;;;;5.60;3.40;;;;;;;14.50;77.40;99074.02;105460;1257;62091;-23
2023/08/24 00:32:08;;;;;;;9.00;3.80;;;;;;;14.32;78.06;99074.27;105492;1254;61469;-23
2023/08/24 00:34:36;;;;;;;7.30;3.90;;;;;;;14.05;77.78;99076.38;105752;1254;77693;-23
2023/08/24 00:37:03;;;;;;;7.90;4.00;;;;;;;13.82;78.53;99077.08;105651;1254;73459;-23
2023/08/24 00:39:31;;;;;;;7.10;2.90;;;;;;;13.62;80.26;99079.91;105766;1257;74071;-23
2023/08/24 00:41:59;;;;;;;5.90;3.40;;;;;;;14.02;79.89;99077.82;105355;1270;61776;-23
2023/08/24 00:44:27;;;;;;;8.80;3.50;;;;;;;14.53;78.22;99075.27;103408;1260;2791397;-23
2023/08/24 00:46:55;;;;;;;9.00;4.10;;;;;;;14.59;77.65;99073.60;105674;1260;72892;-23
2023/08/24 00:49:23;;;;;;;7.80;4.00;;;;;;;14.42;78.28;99080.55;105630;1260;76669;-23
2023/08/24 00:51:51;;;;;;;7.20;4.10;;;;;;;14.17;79.38;99081.46;105705;1254;73723;-23
2023/08/24 00:54:19;;;;;;;7.60;4.20;;;;;;;13.93;78.83;99084.60;105650;1254;62832;-23
2023/08/24 00:56:46;;;;;;;7.10;3.00;;;;;;;13.71;79.74;99083.39;105672;1254;61045;-23
2023/08/24 00:59:14;;;;;;;4.20;2.90;;;;;;;14.04;78.69;99082.74;105725;1260;75595;-23
2023/08/24 01:01:43;;;;;;;9.30;3.70;;;;;;;14.48;77.10;99084.29;105711;1260;74394;-23
2023/08/24 01:04:12;;;;;;;8.20;4.40;;;;;;;14.54;77.20;99084.41;105531;1257;72786;-23
2023/08/24 01:06:40;;;;;;;5.70;4.00;;;;;;;14.37;78.55;99083.76;105878;1254;63248;-24
2023/08/24 01:09:08;;;;;;;9.20;4.20;;;;;;;14.15;78.95;99079.27;105650;1254;61090;-23
2023/08/24 01:11:59;;;;;;;9.50;4.10;;;;;;;13.95;78.94;99077.46;105682;1258;77578;-23
2023/08/24 01:14:38;;;;;;;5.10;3.20;;;;;;;13.80;79.16;99081.30;105675;1254;77340;-23
2023/08/24 01:17:06;;;;;;;4.60;2.90;;;;;;;14.40;79.25;99080.37;105688;1267;73126;-23
2023/08/24 01:19:37;;;;;;;5.90;3.50;;;;;;;14.79;75.18;99077.89;105512;1254;61844;-23
2023/08/24 01:22:10;;;;;;;4.90;3.50;;;;;;;14.63;73.53;99080.38;105669;1254;62776;-23
2023/08/24 01:24:40;;;;;;;8.00;3.80;;;;;;;14.28;74.13;99080.78;105640;1254;76319;-23
2023/08/24 01:27:08;;;;;;;6.90;3.40;;;;;;;13.95;75.27;99082.53;105652;1260;76506;-22
2023/08/24 01:29:38;;;;;;;8.10;4.00;;;;;;;13.68;76.81;99082.92;105547;1258;75237;-23
2023/08/24 01:32:10;;;;;;;10.30;3.50;;;;;;;13.41;77.46;99083.88;105504;1262;62501;-23
2023/08/24 01:34:38;;;;;;;8.50;2.80;;;;;;;13.16;78.51;99079.38;105588;1261;61210;-23
2023/08/24 01:37:07;;;;;;;5.90;2.80;;;;;;;13.58;78.91;99072.03;105515;1254;76560;-23
2023/08/24 01:40:12;;;;;;;4.30;2.80;;;;;;;14.07;77.82;99068.67;105555;1254;74418;-23
2023/08/24 01:42:45;;;;;;;4.10;3.10;;;;;;;14.17;76.50;99069.80;105286;1260;76757;-23
2023/08/24 01:45:13;;;;;;;6.20;3.40;;;;;;;13.95;75.55;99072.59;105559;1263;62434;-23
2023/08/24 01:47:41;;;;;;;4.60;3.10;;;;;;;13.68;75.91;99073.52;105665;1255;62342;-23
2023/08/24 01:50:09;;;;;;;5.40;3.50;;;;;;;13.40;76.80;99071.27;105475;1263;76326;-23
2023/08/24 01:52:37;;;;;;;8.80;4.20;;;;;;;13.14;77.25;99067.86;105740;1254;76732;-23
2023/08/24 01:55:06;;;;;;;4.00;2.60;;;;;;;12.95;78.07;99065.55;105653;1256;76980;-23
2023/08/24 01:57:34;;;;;;;4.30;2.90;;;;;;;13.37;78.35;99066.07;105645;1254;62503;-22
2023/08/24 02:00:06;;;;;;;6.50;3.20;;;;;;;13.92;77.22;99066.54;105671;1254;61482;-22
2023/08/24 02:02:42;;;;;;;4.20;3.20;;;;;;;13.97;76.50;99062.55;105551;1260;75251;-22
2023/08/24 02:05:10;;;;;;;7.40;3.10;;;;;;;13.80;76.17;99063.84;105627;1260;75681;-22
2023/08/24 02:07:39;;;;;;;5.90;4.10;;;;;;;13.56;77.54;99066.52;105654;1255;76613;-22
2023/08/24 02:10:07;;;;;;;8.30;3.60;;;;;;;13.31;78.38;99071.89;105603;1254;61254;-22
2023/08/24 02:12:35;;;;;;;5.70;2.60;;;;;;;13.10;79.09;99070.31;105676;1260;62461;-22
2023/08/24 02:15:03;;;;;;;6.90;3.10;;;;;;;13.50;79.49;99067.38;105665;1260;73869;-22
2023/08/24 02:17:31;;;;;;;6.60;3.20;;;;;;;14.01;78.31;99064.37;105714;1259;74441;-23
2023/08/24 02:19:59;;;;;;;8.40;3.90;;;;;;;14.05;76.38;99062.08;105694;1258;72726;-22
2023/08/24 02:22:28;;;;;;;7.10;3.60;;;;;;;13.78;75.72;99062.80;105737;1259;63091;-22
2023/08/24 02:24:56;;;;;;;6.70;3.40;;;;;;;13.42;76.26;99064.77;105594;1262;61280;-22
2023/08/24 02:27:24;;;;;;;7.00;4.10;;;;;;;13.10;76.82;99066.63;105668;1254;75841;-23
2023/08/24 02:29:52;;;;;;;5.90;3.60;;;;;;;12.85;77.78;99063.90;105655;1258;77141;-22
2023/08/24 02:32:20;;;;;;;4.30;2.40;;;;;;;12.64;79.11;99065.75;105599;1259;71427;-22
2023/08/24 02:34:48;;;;;;;4.20;2.60;;;;;;;13.02;79.91;99068.61;105663;1259;61189;-22
2023/08/24 02:37:16;;;;;;;4.20;2.80;;;;;;;13.46;79.24;99066.46;105769;1256;61112;-22
2023/08/24 02:39:44;;;;;;;4.40;3.10;;;;;;;13.47;79.86;99064.17;105856;1254;77715;-22
2023/08/24 02:42:11;;;;;;;5.40;3.80;;;;;;;13.34;80.61;99064.61;105622;1259;73589;-22
2023/08/24 02:44:40;;;;;;;7.20;3.80;;;;;;;13.20;80.81;99062.78;105635;1254;71438;-23
2023/08/24 02:47:08;;;;;;;6.10;3.50;;;;;;;13.05;80.32;99061.74;105702;1261;64191;-22
2023/08/24 02:49:36;;;;;;;6.20;2.60;;;;;;;12.91;80.18;99059.45;105518;1254;63934;-22
2023/08/24 02:52:04;;;;;;;6.60;2.70;;;;;;;13.34;80.07;99059.39;105649;1260;76493;-22
2023/08/24 02:54:32;;;;;;;5.10;3.40;;;;;;;13.87;78.51;99060.27;105675;1254;76786;-22
2023/08/24 02:57:00;;;;;;;6.80;3.00;;;;;;;13.92;78.56;99060.13;105863;1254;74119;-22
2023/08/24 02:59:28;;;;;;;38.90;23.60;;;;;;;13.45;79.35;99062.38;105499;1259;61183;-22
2023/08/24 03:01:56;;;;;;;28.90;16.50;;;;;;;13.18;79.53;99066.30;105644;1258;61473;-22
2023/08/24 03:04:26;;;;;;;12.00;7.50;;;;;;;12.99;78.13;99065.52;105617;1259;76486;-22
2023/08/24 03:06:54;;;;;;;16.80;7.30;;;;;;;12.79;77.67;99063.13;105322;1254;77302;-22
2023/08/24 03:09:22;;;;;;;6.30;3.70;;;;;;;12.62;78.57;99063.60;105665;1259;74079;-22
2023/08/24 03:11:50;;;;;;;17.30;8.00;;;;;;;12.96;78.68;99066.34;105665;1253;61937;-22
2023/08/24 03:14:18;;;;;;;13.30;7.60;;;;;;;13.33;78.26;99070.28;105646;1260;62936;-23
2023/08/24 03:16:46;;;;;;;14.80;8.60;;;;;;;13.38;77.48;99071.73;105677;1259;76032;-22
2023/08/24 03:19:17;;;;;;;18.40;9.90;;;;;;;13.24;77.10;99069.70;105711;1260;74444;-22
2023/08/24 03:21:45;;;;;;;15.00;8.50;;;;;;;13.04;77.31;99073.10;105665;1257;72697;-22
2023/08/24 03:24:13;;;;;;;7.30;4.90;;;;;;;12.86;77.74;99074.36;105617;1254;63939;-22
2023/08/24 03:26:41;;;;;;;9.90;6.70;;;;;;;12.70;77.95;99077.90;105485;1257;61213;-22
2023/08/24 03:29:09;;;;;;;15.00;6.30;;;;;;;12.54;80.71;99079.48;105452;1254;76286;-22
2023/08/24 03:31:37;;;;;;;10.50;4.80;;;;;;;12.95;79.69;99080.70;105640;1259;78376;-22
2023/08/24 03:34:05;;;;;;;27.90;18.30;;;;;;;13.48;76.72;99079.38;105633;1257;76789;-22
2023/08/24 03:36:33;;;;;;;55.50;36.70;;;;;;;13.54;75.94;99078.34;105626;1258;61512;-22
2023/08/24 03:39:01;;;;;;;54.60;35.90;;;;;;;13.34;77.61;99079.42;105652;1252;62715;-22
2023/08/24 03:41:30;;;;;;;16.70;9.40;;;;;;;13.21;77.71;99083.59;105698;1259;76916;-22
2023/08/24 03:43:58;;;;;;;8.90;5.70;;;;;;;13.17;75.87;99086.02;105539;1254;76559;-22
2023/08/24 03:46:26;;;;;;;6.70;5.10;;;;;;;13.11;75.45;99087.10;105645;1257;74218;-22
2023/08/24 03:48:54;;;;;;;7.90;3.20;;;;;;;12.97;76.28;99093.42;105646;1254;62132;-22
2023/08/24 03:51:23;;;;;;;3.70;2.60;;;;;;;13.39;76.63;99094.55;105866;1254;61099;-22
2023/08/24 03:53:50;;;;;;;18.90;10.60;;;;;;;13.90;75.68;99093.30;105685;1254;73872;-22
2023/08/24 03:56:18;;;;;;;6.90;5.30;;;;;;;14.07;75.17;99092.23;105665;1253;76438;-22
2023/08/24 03:58:46;;;;;;;6.90;3.70;;;;;;;14.07;74.07;99088.34;105676;1258;72563;-22
2023/08/24 04:01:14;;;;;;;33.70;17.30;;;;;;;14.06;74.04;99089.69;105489;1259;61137;-22
2023/08/24 04:03:42;;;;;;;8.40;5.20;;;;;;;14.07;74.06;99090.13;105631;1254;62886;-23
2023/08/24 04:06:10;;;;;;;8.20;4.80;;;;;;;14.09;73.72;99092.35;105643;1254;73891;-22
2023/08/24 04:08:38;;;;;;;9.70;3.70;;;;;;;14.23;73.83;99087.97;105681;1254;74724;-22
2023/08/24 04:11:06;;;;;;;10.40;3.10;;;;;;;14.94;73.57;99090.32;105595;1257;75191;-22
2023/08/24 04:15:46;;;;;;;26.80;13.00;;;;;;;16.03;69.84;99083.84;102673;1292;600620;-21
2023/08/24 04:18:14;;;;;;;31.90;16.90;;;;;;;16.08;69.76;99083.80;104801;1267;61123;-21
2023/08/24 04:20:42;;;;;;;62.60;35.70;;;;;;;16.04;70.00;99086.31;104784;1267;61068;-21
2023/08/24 04:23:12;;;;;;;80.10;35.60;;;;;;;15.99;70.36;99086.16;104815;1271;71990;-21
2023/08/24 04:25:40;;;;;;;61.70;30.20;;;;;;;16.06;70.79;99085.21;104851;1267;74432;-21
2023/08/24 04:28:08;;;;;;;45.60;25.50;;;;;;;16.22;70.83;99090.08;104840;1267;74203;-21
2023/08/24 04:30:36;;;;;;;36.60;17.60;;;;;;;16.38;70.68;99084.94;102790;1263;62219;-21
2023/08/24 04:33:04;;;;;;;33.10;16.40;;;;;;;17.00;70.14;99085.96;105014;1269;61119;-22
2023/08/24 04:35:35;;;;;;;28.80;14.50;;;;;;;17.70;68.02;99088.34;105038;1264;61175;-21
2023/08/24 04:38:03;;;;;;;24.90;14.20;;;;;;;17.94;67.19;99085.15;104852;1270;74607;-22
2023/08/24 04:40:53;;;;;;;33.10;15.80;;;;;;;17.94;66.76;99083.54;105290;1261;71709;-21
2023/08/24 04:43:22;;;;;;;26.90;15.50;;;;;;;17.96;67.58;99079.27;105472;1262;61179;-22
2023/08/24 04:45:52;;;;;;;32.90;17.30;;;;;;;18.08;67.59;99080.11;105294;1259;62599;-21
2023/08/24 04:48:21;;;;;;;38.10;17.50;;;;;;;18.26;67.40;99078.17;105158;1258;74307;-21
2023/08/24 04:50:49;;;;;;;35.30;18.70;;;;;;;18.42;67.26;99081.62;105376;1258;76778;-21
2023/08/24 04:53:17;;;;;;;33.00;18.30;;;;;;;18.49;67.26;99081.14;105204;1262;75158;-21
2023/08/24 04:55:46;;;;;;;28.70;17.20;;;;;;;18.63;66.86;99079.95;105245;1257;62825;-21
2023/08/24 04:58:14;;;;;;;30.60;17.80;;;;;;;18.85;66.19;99080.27;105251;1262;61148;-22
2023/08/24 05:00:42;;;;;;;28.20;17.30;;;;;;;19.08;65.50;99080.91;105366;1262;75855;-22
2023/08/24 05:03:10;;;;;;;30.50;18.60;;;;;;;19.24;65.14;99080.09;105478;1262;75783;-21
2023/08/24 05:05:38;;;;;;;30.00;17.40;;;;;;;19.30;64.28;99081.63;105576;1261;75241;-21
2023/08/24 05:08:06;;;;;;;30.30;19.20;;;;;;;19.44;64.41;99084.96;105660;1256;61180;-21
2023/08/24 05:10:36;;;;;;;70.60;39.60;;;;;;;19.57;64.64;99084.20;105726;1255;61165;-22
2023/08/24 05:20:47;;;;;;;27.00;14.30;;;;;;;19.93;62.73;99080.44;102771;1290;600113;-22
2023/08/24 05:23:15;;;;;;;41.90;24.30;;;;;;;20.01;62.63;99083.73;104845;1270;64201;-22
2023/08/24 05:25:43;;;;;;;36.90;20.00;;;;;;;20.23;61.98;99082.56;104887;1270;62594;-22
2023/08/24 05:28:12;;;;;;;43.00;17.90;;;;;;;20.39;61.35;99082.84;104865;1269;74788;-22
2023/08/24 05:30:40;;;;;;;34.10;17.00;;;;;;;20.55;60.63;99084.83;105042;1269;73231;-22
2023/08/24 05:33:08;;;;;;;28.90;14.00;;;;;;;20.71;60.21;99082.04;105057;1269;75631;-21
2023/08/24 05:35:36;;;;;;;31.20;12.60;;;;;;;20.78;59.74;99084.28;103212;1264;2747610;-22
2023/08/24 05:38:04;;;;;;;51.70;14.80;;;;;;;20.81;59.50;99083.42;105183;1264;61446;-22
2023/08/24 05:40:34;;;;;;;36.00;16.00;;;;;;;20.83;59.50;99085.34;105122;1264;76066;-22
2023/08/24 05:43:02;;;;;;;35.60;15.10;;;;;;;20.81;59.31;99084.84;105599;1258;77158;-21
2023/08/24 05:45:30;;;;;;;35.90;15.70;;;;;;;20.91;58.87;99082.42;105602;1258;74957;-21
2023/08/24 05:47:58;;;;;;;33.00;13.70;;;;;;;21.03;57.56;99079.46;105495;1257;61186;-22
2023/08/24 05:50:26;;;;;;;19.80;10.00;;;;;;;21.20;57.57;99081.82;105519;1261;62475;-22
2023/08/24 05:52:54;;;;;;;22.80;11.20;;;;;;;21.34;56.23;99081.75;105329;1262;75516;-21
2023/08/24 05:55:22;;;;;;;20.00;9.70;;;;;;;21.38;56.33;99082.47;105633;1254;77290;-21
2023/08/24 05:57:50;;;;;;;23.30;10.80;;;;;;;21.37;56.51;99074.92;105632;1254;73165;-21
2023/08/24 06:00:20;;;;;;;23.80;10.80;;;;;;;21.39;56.21;99080.99;105575;1259;62450;-22
2023/08/24 06:02:47;;;;;;;20.70;9.70;;;;;;;21.44;56.23;99079.88;105632;1260;63989;-21
2023/08/24 06:05:17;;;;;;;22.80;9.80;;;;;;;21.51;56.47;99075.70;105680;1254;74490;-22
2023/08/24 06:07:45;;;;;;;16.50;8.90;;;;;;;21.60;56.50;99078.35;105658;1260;74444;-21
2023/08/24 06:10:13;;;;;;;15.30;8.50;;;;;;;21.65;56.93;99078.63;105618;1254;75502;-22
2023/08/24 06:12:41;;;;;;;18.70;8.20;;;;;;;21.73;56.90;99078.50;105631;1254;61195;-22
2023/08/24 06:15:12;;;;;;;16.00;7.30;;;;;;;21.81;56.48;99077.78;105587;1257;62739;-22
2023/08/24 06:17:41;;;;;;;21.10;7.30;;;;;;;21.82;55.13;99073.91;105603;1257;75927;-22
2023/08/24 06:20:10;;;;;;;18.30;7.30;;;;;;;21.83;55.45;99072.61;105730;1254;74497;-22
2023/08/24 06:22:38;;;;;;;16.80;8.30;;;;;;;21.87;55.75;99075.67;105742;1254;75650;-22
2023/08/24 06:25:08;;;;;;;17.20;8.50;;;;;;;21.92;55.49;99071.77;105662;1254;62540;-21
2023/08/24 06:27:36;;;;;;;14.30;7.10;;;;;;;21.98;55.07;99072.70;105714;1252;61981;-22
2023/08/24 06:30:05;;;;;;;10.20;5.80;;;;;;;22.04;54.48;99071.73;105828;1256;73029;-22
2023/08/24 06:32:33;;;;;;;10.20;5.90;;;;;;;22.12;52.55;99072.65;105692;1254;78441;-21
2023/08/24 06:35:01;;;;;;;16.80;5.10;;;;;;;22.02;50.52;99080.80;105757;1254;75605;-23
2023/08/24 06:37:29;;;;;;;10.10;4.60;;;;;;;22.02;49.30;99085.47;105669;1259;61663;-23
2023/08/24 06:39:57;;;;;;;7.30;3.80;;;;;;;22.02;49.43;99086.98;105759;1254;61489;-22
2023/08/24 06:42:25;;;;;;;10.70;4.60;;;;;;;22.13;48.33;99084.11;105706;1256;76874;-23
2023/08/24 06:44:52;;;;;;;8.60;3.60;;;;;;;22.30;48.79;99088.08;105707;1254;78400;-22
2023/08/24 06:47:21;;;;;;;7.90;3.00;;;;;;;22.42;47.34;99081.42;105705;1254;76629;-22
2023/08/24 06:49:49;;;;;;;7.40;3.70;;;;;;;22.51;47.19;99086.87;105675;1254;62698;-22
2023/08/24 06:52:17;;;;;;;9.60;4.50;;;;;;;22.73;47.60;99087.42;105713;1259;62303;-23
2023/08/24 06:54:45;;;;;;;7.40;3.70;;;;;;;22.94;46.53;99091.70;105640;1257;74660;-23
2023/08/24 06:57:12;;;;;;;7.40;3.90;;;;;;;23.06;45.29;99093.41;105730;1254;76736;-23
2023/08/24 06:59:40;;;;;;;7.30;3.20;;;;;;;23.20;45.09;99089.48;105653;1254;76614;-23
2023/08/24 07:02:08;;;;;;;9.80;2.90;;;;;;;23.34;43.81;99088.67;105603;1254;62547;-22
2023/08/24 07:04:38;;;;;;;5.20;2.90;;;;;;;23.08;44.15;99094.35;105544;1254;64369;-23
2023/08/24 07:07:06;;;;;;;3.80;2.10;;;;;;;23.36;44.75;99091.48;105589;1254;75492;-23
2023/08/24 07:09:35;;;;;;;3.80;1.60;;;;;;;23.61;42.47;99091.29;105832;1254;76778;-23
2023/08/24 07:12:06;;;;;;;2.90;1.60;;;;;;;23.79;41.54;99094.30;105688;1257;71812;-23
2023/08/24 07:14:34;;;;;;;4.20;1.60;;;;;;;23.93;41.97;99092.96;105540;1257;61179;-23
2023/08/24 07:17:02;;;;;;;2.50;1.70;;;;;;;23.99;40.74;99090.35;105601;1254;61968;-23
2023/08/24 07:19:30;;;;;;;3.60;1.60;;;;;;;24.10;40.07;99091.19;105681;1259;73083;-23
2023/08/24 07:21:58;;;;;;;2.50;1.20;;;;;;;24.09;39.34;99089.60;105744;1258;78420;-22
2023/08/24 07:24:28;;;;;;;3.30;1.30;;;;;;;24.05;39.95;99086.17;105624;1254;75242;-23
2023/08/24 07:27:11;;;;;;;2.60;1.30;;;;;;;24.06;40.05;99090.11;105721;1259;62788;-23
2023/08/24 07:29:39;;;;;;;3.50;1.90;;;;;;;24.16;41.15;99089.65;105715;1259;61131;-22
2023/08/24 07:32:07;;;;;;;4.80;1.40;;;;;;;24.29;40.06;99090.92;105690;1254;72751;-23
2023/08/24 07:34:35;;;;;;;5.70;3.10;;;;;;;24.41;39.58;99090.39;105679;1254;78428;-23
2023/08/24 07:37:03;;;;;;;3.00;1.90;;;;;;;24.43;39.64;99090.23;105722;1254;75577;-22
2023/08/24 07:39:32;;;;;;;11.60;7.00;;;;;;;24.63;39.59;99094.38;105699;1254;63924;-22
2023/08/24 07:42:00;;;;;;;7.50;2.40;;;;;;;24.50;38.20;99091.15;105765;1254;61190;-22
2023/08/24 07:44:28;;;;;;;4.80;2.10;;;;;;;24.23;38.90;99096.16;105636;1254;73099;-23
2023/08/24 07:46:56;;;;;;;3.80;1.70;;;;;;;24.55;39.03;99094.44;105823;1254;76737;-23
2023/08/24 07:49:24;;;;;;;3.10;1.80;;;;;;;24.66;38.68;99097.06;105691;1254;75200;-23
2023/08/24 07:51:52;;;;;;;2.10;1.30;;;;;;;24.77;38.67;99095.73;105713;1253;62875;-23
2023/08/24 07:54:20;;;;;;;2.40;1.90;;;;;;;24.97;38.19;99094.91;105706;1253;62664;-23
2023/08/24 07:56:48;;;;;;;3.30;1.10;;;;;;;25.14;37.88;99095.70;105790;1256;75490;-23
2023/08/24 07:59:16;;;;;;;2.70;1.50;;;;;;;25.46;37.13;99096.30;105636;1254;76570;-23
2023/08/24 08:01:44;;;;;;;3.10;1.40;;;;;;;25.56;36.75;99094.56;105673;1254;71328;-23
2023/08/24 08:04:12;;;;;;;5.20;2.00;;;;;;;25.68;36.85;99095.58;105697;1252;61106;-23
2023/08/24 08:06:40;;;;;;;2.30;1.50;;;;;;;25.77;36.51;99092.67;105500;1254;61487;-23
2023/08/24 08:09:07;;;;;;;7.70;2.00;;;;;;;25.57;36.56;99094.16;105651;1254;73099;-23
2023/08/24 08:11:36;;;;;;;6.30;1.30;;;;;;;25.44;37.18;99091.52;105697;1254;74389;-23
2023/08/24 08:14:03;;;;;;;2.80;1.50;;;;;;;25.79;37.17;99095.32;105755;1254;75806;-23
2023/08/24 08:16:31;;;;;;;2.30;1.70;;;;;;;26.17;37.16;99095.12;105733;1254;61405;-23
2023/08/24 08:18:59;;;;;;;5.10;1.70;;;;;;;26.39;35.98;99095.20;105645;1258;61166;-23
2023/08/24 08:21:27;;;;;;;7.40;1.80;;;;;;;26.67;35.36;99091.08;105734;1254;75507;-23
2023/08/24 08:23:55;;;;;;;2.40;1.40;;;;;;;26.92;33.79;99087.79;105591;1254;73244;-23
2023/08/24 08:26:23;;;;;;;2.00;1.20;;;;;;;26.85;34.16;99090.65;105641;1255;72690;-24
2023/08/24 08:28:51;;;;;;;2.30;1.30;;;;;;;26.95;34.26;99093.90;105645;1254;61500;-23
2023/08/24 08:31:19;;;;;;;2.30;1.20;;;;;;;27.24;34.59;99089.58;105676;1253;64095;-23
2023/08/24 08:33:49;;;;;;;2.80;1.10;;;;;;;27.44;32.97;99089.19;105721;1254;75723;-23
2023/08/24 08:36:17;;;;;;;4.70;1.20;;;;;;;27.46;33.38;99091.27;105659;1254;74461;-23
2023/08/24 08:38:44;;;;;;;2.10;1.10;;;;;;;27.00;33.18;99092.00;105689;1254;72671;-23
2023/08/24 08:41:12;;;;;;;3.30;1.10;;;;;;;26.39;34.61;99092.76;105665;1254;61819;-23
2023/08/24 08:43:40;;;;;;;1.90;1.30;;;;;;;26.47;35.14;99093.61;105616;1259;61481;-23
2023/08/24 08:46:08;;;;;;;1.60;0.80;;;;;;;26.38;34.98;99090.13;105280;1261;74908;-23
2023/08/24 08:48:36;;;;;;;1.90;1.10;;;;;;;26.23;35.02;99084.44;105553;1254;77189;-23
2023/08/24 08:51:04;;;;;;;1.80;1.20;;;;;;;26.04;36.16;99084.18;105532;1254;76954;-23
2023/08/24 08:53:32;;;;;;;4.50;0.90;;;;;;;26.08;35.76;99079.65;105639;1254;61103;-23
2023/08/24 08:56:03;;;;;;;3.80;1.10;;;;;;;26.25;34.85;99075.66;105685;1259;63985;-23
2023/08/24 08:58:31;;;;;;;5.20;0.90;;;;;;;26.36;34.23;99076.94;105687;1260;77117;-23
2023/08/24 09:01:03;;;;;;;2.10;1.10;;;;;;;26.61;33.70;99074.88;105715;1259;72998;-23
2023/08/24 09:03:32;;;;;;;2.40;1.00;;;;;;;26.80;33.48;99074.32;105709;1254;72738;-23
2023/08/24 09:06:00;;;;;;;2.70;1.10;;;;;;;27.00;34.04;99071.08;105706;1259;62352;-23
2023/08/24 09:08:28;;;;;;;3.90;1.00;;;;;;;27.10;32.68;99070.79;105635;1254;61000;-23
2023/08/24 09:10:56;;;;;;;2.00;1.00;;;;;;;27.12;32.47;99068.36;105648;1254;71921;-23
2023/08/24 09:13:24;;;;;;;1.00;0.80;;;;;;;27.26;32.77;99068.67;105645;1260;78530;-23
2023/08/24 09:15:55;;;;;;;3.00;1.20;;;;;;;27.41;31.68;99065.93;105676;1254;76099;-23
2023/08/24 09:18:23;;;;;;;1.70;1.00;;;;;;;27.38;31.77;99066.89;105662;1254;62770;-23
2023/08/24 09:20:51;;;;;;;3.80;2.90;;;;;;;27.71;31.05;99061.75;105616;1255;63855;-23
2023/08/24 09:23:21;;;;;;;2.50;1.20;;;;;;;27.69;30.55;99053.30;105704;1254;73073;-23
2023/08/24 09:25:49;;;;;;;5.80;1.40;;;;;;;27.99;31.00;99049.27;105678;1254;76779;-23
2023/08/24 09:28:23;;;;;;;2.80;1.20;;;;;;;28.16;30.75;99057.77;105698;1258;75201;-23
2023/08/24 09:30:57;;;;;;;1.80;1.00;;;;;;;28.11;30.54;99058.95;105522;1254;61528;-24
2023/08/24 09:33:25;;;;;;;1.10;0.80;;;;;;;28.07;31.48;99058.94;105634;1254;62491;-23
2023/08/24 09:35:57;;;;;;;3.40;1.00;;;;;;;27.72;32.02;99057.80;105706;1258;73913;-23
2023/08/24 09:38:26;;;;;;;2.50;1.10;;;;;;;27.33;32.36;99060.63;105632;1262;77356;-23
2023/08/24 09:40:55;;;;;;;3.40;0.90;;;;;;;27.05;33.08;99061.70;105733;1259;76650;-23
2023/08/24 09:43:23;;;;;;;1.70;0.80;;;;;;;27.22;33.06;99055.61;105741;1254;63934;-23
2023/08/24 09:45:52;;;;;;;2.60;1.10;;;;;;;27.49;32.57;99054.20;105621;1254;61156;-23
2023/08/24 09:48:21;;;;;;;2.30;1.00;;;;;;;27.95;32.07;99052.30;105593;1254;77863;-23
2023/08/24 09:50:50;;;;;;;1.50;0.90;;;;;;;28.46;31.32;99052.45;105666;1260;77167;-23
2023/08/24 09:53:24;;;;;;;1.20;0.80;;;;;;;28.37;31.03;99052.25;105687;1254;75873;-23
2023/08/24 09:55:59;;;;;;;5.30;1.10;;;;;;;28.32;31.23;99052.33;105622;1258;62186;-24
2023/08/24 09:58:27;;;;;;;2.20;0.90;;;;;;;28.21;31.14;99046.46;105537;1254;61467;-23
2023/08/24 10:00:56;;;;;;;2.80;1.30;;;;;;;27.78;31.21;99045.58;105642;1259;76640;-23
2023/08/24 10:03:27;;;;;;;3.30;2.20;;;;;;;26.93;32.56;99047.44;105711;1254;74413;-23
2023/08/24 10:06:03;;;;;;;2.70;1.40;;;;;;;26.94;32.77;99046.16;105647;1257;72691;-23
2023/08/24 10:08:37;;;;;;;2.20;1.10;;;;;;;27.45;32.24;99044.91;105667;1254;62139;-23
2023/08/24 10:11:05;;;;;;;2.30;1.00;;;;;;;28.10;31.35;99042.94;105720;1259;62503;-23
2023/08/24 10:13:41;;;;;;;3.20;1.10;;;;;;;28.72;30.89;99039.48;105706;1254;77725;-23
2023/08/24 10:16:09;;;;;;;2.20;1.10;;;;;;;29.31;30.27;99037.35;105692;1262;77056;-23
2023/08/24 10:18:37;;;;;;;2.00;1.10;;;;;;;29.70;29.69;99037.32;105733;1258;75450;-23
2023/08/24 10:21:07;;;;;;;1.90;1.10;;;;;;;29.93;28.95;99038.75;105659;1259;62542;-23
2023/08/24 10:23:35;;;;;;;3.40;1.20;;;;;;;29.86;28.49;99034.11;105615;1254;64112;-23
2023/08/24 10:26:03;;;;;;;3.90;1.20;;;;;;;29.73;28.55;99033.48;105546;1259;75326;-23
2023/08/24 10:28:32;;;;;;;1.60;1.10;;;;;;;29.80;28.86;99033.45;105699;1254;76756;-23
2023/08/24 10:31:00;;;;;;;2.50;0.90;;;;;;;29.59;28.51;99032.59;105637;1259;77128;-23
2023/08/24 10:33:28;;;;;;;2.90;1.10;;;;;;;29.48;28.44;99033.11;105698;1254;61061;-23
2023/08/24 10:35:56;;;;;;;5.00;1.30;;;;;;;29.96;27.30;99038.52;105633;1254;61221;-23
2023/08/24 10:38:25;;;;;;;3.20;1.10;;;;;;;30.39;27.47;99028.36;105641;1258;72262;-23
2023/08/24 10:40:54;;;;;;;3.70;1.00;;;;;;;30.81;27.45;99026.64;105721;1254;77045;-23
2023/08/24 10:43:22;;;;;;;2.40;1.20;;;;;;;31.08;25.35;99026.95;105877;1253;66253;-23
2023/08/24 10:46:00;;;;;;;5.20;1.40;;;;;;;31.16;25.16;99030.02;105416;1254;61241;-23
2023/08/24 10:48:49;;;;;;;2.30;1.10;;;;;;;30.82;25.53;99024.55;105451;1254;61062;-23
2023/08/24 10:51:21;;;;;;;3.70;1.30;;;;;;;30.29;26.51;99026.96;105632;1258;75006;-23
2023/08/24 10:53:55;;;;;;;2.40;1.30;;;;;;;29.98;27.38;99027.52;105654;1262;67725;-23
2023/08/24 10:56:30;;;;;;;4.00;1.10;;;;;;;29.14;28.80;99024.45;105618;1259;75707;-23
2023/08/24 10:59:17;;;;;;;2.00;0.80;;;;;;;28.34;29.62;99022.58;105389;1254;62512;-23
2023/08/24 11:01:51;;;;;;;6.40;1.30;;;;;;;27.66;30.84;99020.70;105704;1257;61199;-23
2023/08/24 11:04:20;;;;;;;7.70;1.80;;;;;;;27.43;31.12;99014.88;105651;1259;76541;-23
2023/08/24 11:06:59;;;;;;;7.90;1.20;;;;;;;27.64;31.07;99012.92;105608;1258;78529;-23
2023/08/24 11:09:44;;;;;;;3.10;1.20;;;;;;;28.04;30.34;99013.98;105456;1256;75158;-23
2023/08/24 11:12:12;;;;;;;4.90;1.40;;;;;;;28.88;29.60;99009.41;105699;1254;62154;-22
2023/08/24 11:14:58;;;;;;;2.50;1.10;;;;;;;29.56;27.94;99005.14;105739;1259;61409;-23
2023/08/24 11:17:31;;;;;;;3.80;1.20;;;;;;;29.91;27.69;99002.13;105698;1260;76846;-23
2023/08/24 11:20:00;;;;;;;5.50;1.30;;;;;;;29.23;28.57;99006.40;105348;1262;77119;-23
2023/08/24 11:22:32;;;;;;;;;;;;;;;29.47;28.65;99004.38;105664;1262;72844;-23
2023/08/24 11:25:00;;;;;;;3.30;1.30;;;;;;;29.44;28.02;99007.92;105666;1259;61479;-23
2023/08/24 11:27:28;;;;;;;6.60;1.90;;;;;;;28.43;29.04;99008.19;105687;1259;61095;-23
2023/08/24 11:30:00;;;;;;;3.40;1.40;;;;;;;27.80;29.56;99005.83;105701;1254;76327;-23
2023/08/24 11:32:28;;;;;;;2.30;1.20;;;;;;;28.54;29.18;99000.23;105515;1262;76801;-23
2023/08/24 11:34:57;;;;;;;3.30;1.00;;;;;;;28.66;28.08;98993.41;105496;1259;74892;-23
2023/08/24 11:37:35;;;;;;;1.70;1.20;;;;;;;28.16;28.55;98989.16;105623;1258;62766;-23
2023/08/24 11:40:20;;;;;;;2.30;1.00;;;;;;;28.29;28.38;98994.83;105633;1254;61798;-23